Terminal Aerodrome Forecast
Issued by NWS

Home | Current Version | Previous Version | Text Only | Print | Product List | Glossary On
Versions: 1 2 3 4 5 6 7 8 9 10 11 12 13
740
FTUS46 KSEW 222320
TAFOLM
TAF
KOLM 222320Z 2300/2324 03007KT P6SM SCT250
     FM230600 VRB03KT P6SM SCT250
     FM231700 27008KT P6SM SCT250
     FM232100 26010G18KT P6SM SCT250=

USA.gov is the U.S. government's official web portal to all federal, state and local government web resources and services.